createdAt,value
2018-04-08T00:00:55.365Z,14.90
2018-04-08T00:03:22.082Z,15.10
2018-04-08T00:05:49.360Z,16.03
2018-04-08T00:08:15.948Z,15.63
2018-04-08T00:10:42.565Z,15.17
2018-04-08T00:13:09.115Z,15.03
2018-04-08T00:15:35.730Z,15.13
2018-04-08T00:18:02.883Z,13.97
2018-04-08T00:20:29.412Z,17.50
2018-04-08T00:22:56.031Z,22.03
2018-04-08T00:25:22.593Z,19.93
2018-04-08T00:27:49.148Z,16.20
2018-04-08T00:30:15.797Z,17.83
2018-04-08T00:32:42.423Z,15.93
2018-04-08T00:35:09.757Z,15.90
2018-04-08T00:37:36.344Z,14.77
2018-04-08T00:40:03.650Z,14.67
2018-04-08T00:42:30.234Z,14.93
2018-04-08T00:44:57.534Z,15.20
2018-04-08T00:47:24.108Z,14.03
2018-04-08T00:49:50.709Z,16.17
2018-04-08T00:52:17.313Z,14.93
2018-04-08T00:54:43.916Z,14.53
2018-04-08T00:57:10.468Z,15.40
2018-04-08T00:59:37.003Z,15.77
2018-04-08T01:02:04.299Z,14.87
2018-04-08T01:04:30.867Z,14.57
2018-04-08T01:06:57.431Z,15.73
2018-04-08T01:09:24.753Z,15.30
2018-04-08T01:11:51.287Z,14.80
2018-04-08T01:14:17.829Z,14.90
2018-04-08T01:16:44.446Z,15.50
2018-04-08T01:19:11.750Z,14.73
2018-04-08T01:21:38.327Z,16.23
2018-04-08T01:24:04.946Z,15.20
2018-04-08T01:26:31.480Z,15.53
2018-04-08T01:28:58.065Z,15.50
2018-04-08T01:31:24.696Z,16.03
2018-04-08T01:33:51.248Z,15.97
2018-04-08T01:36:17.808Z,16.27
2018-04-08T01:38:44.347Z,15.00
2018-04-08T01:41:10.862Z,14.90
2018-04-08T01:43:37.367Z,14.60
2018-04-08T01:46:03.885Z,15.47
2018-04-08T01:48:30.377Z,15.20
2018-04-08T01:50:58.404Z,15.07
2018-04-08T01:53:24.946Z,15.83
2018-04-08T01:55:52.031Z,16.23
2018-04-08T01:58:18.584Z,16.23
2018-04-08T02:00:45.123Z,15.90
2018-04-08T02:03:12.371Z,15.37
2018-04-08T02:05:39.615Z,15.73
2018-04-08T02:08:06.896Z,15.00
2018-04-08T02:10:33.416Z,15.63
2018-04-08T02:12:59.959Z,16.27
2018-04-08T02:15:26.524Z,15.57
2018-04-08T02:17:53.019Z,16.43
2018-04-08T02:20:20.303Z,15.63
2018-04-08T02:22:46.818Z,16.93
2018-04-08T02:25:13.353Z,17.20
2018-04-08T02:27:39.976Z,16.90
2018-04-08T02:30:06.503Z,16.37
2018-04-08T02:32:32.991Z,17.07
2018-04-08T02:34:59.531Z,16.00
2018-04-08T02:37:26.030Z,17.10
2018-04-08T02:39:53.319Z,16.37
2018-04-08T02:42:19.814Z,16.30
2018-04-08T02:44:47.052Z,16.87
2018-04-08T02:47:14.302Z,16.57
2018-04-08T02:49:40.799Z,17.20
2018-04-08T02:52:07.363Z,16.87
2018-04-08T02:54:34.650Z,16.40
2018-04-08T02:57:01.972Z,17.50
2018-04-08T02:59:28.524Z,17.80
2018-04-08T03:01:55.791Z,16.87
2018-04-08T03:04:23.071Z,17.17
2018-04-08T03:06:49.620Z,16.63
2018-04-08T03:09:16.152Z,17.60
2018-04-08T03:11:42.644Z,17.77
2018-04-08T03:14:09.879Z,17.33
2018-04-08T03:16:36.398Z,17.77
2018-04-08T03:19:02.897Z,18.80
2018-04-08T03:21:29.400Z,18.13
2018-04-08T03:23:56.691Z,17.57
2018-04-08T03:26:23.212Z,22.00
2018-04-08T03:28:50.475Z,18.83
2018-04-08T03:31:17.022Z,19.57
2018-04-08T03:33:43.561Z,18.57
2018-04-08T03:36:10.105Z,19.67
2018-04-08T03:38:36.688Z,20.17
2018-04-08T03:41:03.167Z,21.40
2018-04-08T03:43:29.678Z,20.10
2018-04-08T03:45:56.309Z,19.97
2018-04-08T03:48:22.816Z,20.00
2018-04-08T03:50:49.329Z,18.93
2018-04-08T03:53:15.830Z,19.77
2018-04-08T03:55:42.353Z,20.77
2018-04-08T03:58:08.867Z,20.23
2018-04-08T04:00:36.184Z,19.80
2018-04-08T04:03:02.715Z,21.20
2018-04-08T04:05:29.280Z,21.17
2018-04-08T04:07:55.902Z,19.87
2018-04-08T04:10:23.065Z,21.00
2018-04-08T04:12:49.607Z,22.27
2018-04-08T04:15:16.186Z,22.30
2018-04-08T04:17:42.726Z,20.63
2018-04-08T04:20:21.362Z,22.03
2018-04-08T04:23:00.060Z,22.40
2018-04-08T04:25:32.593Z,21.67
2018-04-08T04:27:59.140Z,22.33
2018-04-08T04:30:26.396Z,22.10
2018-04-08T04:32:53.682Z,22.50
2018-04-08T04:35:20.258Z,22.57
2018-04-08T04:37:46.832Z,23.03
2018-04-08T04:40:14.062Z,24.00
2018-04-08T04:42:40.543Z,31.97
2018-04-08T04:45:07.043Z,29.27
2018-04-08T04:47:33.535Z,25.27
2018-04-08T04:50:00.050Z,25.73
2018-04-08T04:52:26.531Z,22.73
2018-04-08T04:54:53.762Z,28.63
2018-04-08T04:57:20.263Z,23.10
2018-04-08T04:59:46.754Z,21.70
2018-04-08T05:02:13.308Z,22.43
2018-04-08T05:04:40.565Z,24.63
2018-04-08T05:07:07.827Z,23.00
2018-04-08T05:09:34.393Z,22.70
2018-04-08T05:12:00.887Z,23.27
2018-04-08T05:14:27.435Z,24.03
2018-04-08T05:16:54.729Z,24.60
2018-04-08T05:19:21.231Z,23.93
2018-04-08T05:21:47.864Z,23.10
2018-04-08T05:24:14.413Z,24.73
2018-04-08T05:26:40.904Z,23.37
2018-04-08T05:29:07.382Z,24.17
2018-04-08T05:31:33.864Z,23.63
2018-04-08T05:34:00.356Z,25.17
2018-04-08T05:36:26.855Z,23.30
2018-04-08T05:38:54.220Z,24.47
2018-04-08T05:41:21.510Z,23.77
2018-04-08T05:43:48.077Z,25.67
2018-04-08T05:46:14.603Z,23.90
2018-04-08T05:48:41.128Z,23.33
2018-04-08T05:51:07.645Z,23.83
2018-04-08T05:53:34.230Z,24.67
2018-04-08T05:56:00.779Z,23.17
2018-04-08T05:58:27.399Z,25.47
2018-04-08T06:00:53.883Z,24.43
2018-04-08T06:03:20.384Z,23.93
2018-04-08T06:05:46.876Z,23.57
2018-04-08T06:08:13.393Z,23.90
2018-04-08T06:10:39.919Z,25.03
2018-04-08T06:13:06.535Z,26.63
2018-04-08T06:15:33.770Z,25.70
2018-04-08T06:18:00.250Z,26.10
2018-04-08T06:20:26.866Z,26.40
2018-04-08T06:22:54.214Z,25.80
2018-04-08T06:25:21.563Z,26.03
2018-04-08T06:27:48.886Z,25.63
2018-04-08T06:30:15.419Z,26.77
2018-04-08T06:32:41.892Z,25.90
2018-04-08T06:35:08.549Z,27.77
2018-04-08T06:37:35.098Z,26.47
2018-04-08T06:40:01.729Z,26.60
2018-04-08T06:42:29.032Z,25.87
2018-04-08T06:44:55.581Z,26.63
2018-04-08T06:47:22.168Z,25.57
2018-04-08T06:49:48.715Z,24.83
2018-04-08T06:52:15.243Z,26.00
2018-04-08T06:54:41.750Z,24.73
2018-04-08T06:57:09.005Z,26.73
2018-04-08T06:59:35.557Z,24.77
2018-04-08T07:02:02.105Z,26.97
2018-04-08T07:04:28.655Z,25.70
2018-04-08T07:06:55.132Z,26.43
2018-04-08T07:09:21.651Z,26.23
2018-04-08T07:11:48.221Z,26.47
2018-04-08T07:14:14.816Z,25.10
2018-04-08T07:16:41.296Z,27.43
2018-04-08T07:19:08.537Z,26.60
2018-04-08T07:21:35.844Z,26.50
2018-04-08T07:24:02.354Z,25.77
2018-04-08T07:26:28.883Z,26.53
2018-04-08T07:28:55.375Z,27.07
2018-04-08T07:31:21.910Z,26.67
2018-04-08T07:33:48.411Z,27.73
2018-04-08T07:36:14.902Z,26.17
2018-04-08T07:38:42.177Z,25.43
2018-04-08T07:41:08.707Z,28.43
2018-04-08T07:43:35.209Z,27.93
2018-04-08T07:46:01.774Z,27.80
2018-04-08T07:48:28.369Z,27.03
2018-04-08T07:50:54.897Z,28.27
2018-04-08T07:53:21.465Z,27.07
2018-04-08T07:55:48.715Z,25.40
2018-04-08T07:58:15.214Z,26.17
2018-04-08T08:00:41.743Z,26.00
2018-04-08T08:03:08.303Z,26.93
2018-04-08T08:05:34.886Z,25.57
2018-04-08T08:08:01.440Z,24.73
2018-04-08T08:10:28.003Z,25.37
2018-04-08T08:12:54.559Z,25.17
2018-04-08T08:15:21.889Z,25.53
2018-04-08T08:17:48.412Z,24.67
2018-04-08T08:20:14.955Z,26.93
2018-04-08T08:22:41.571Z,24.23
2018-04-08T08:25:08.068Z,24.67
2018-04-08T08:27:34.671Z,26.57
2018-04-08T08:30:01.219Z,26.33
2018-04-08T08:32:27.757Z,26.97
2018-04-08T08:34:54.301Z,25.07
2018-04-08T08:37:20.822Z,24.47
2018-04-08T08:39:47.385Z,25.43
2018-04-08T08:42:14.738Z,23.43
2018-04-08T08:44:41.997Z,24.33
2018-04-08T08:47:09.227Z,24.73
2018-04-08T08:49:35.729Z,22.07
2018-04-08T08:52:03.030Z,22.87
2018-04-08T08:54:29.584Z,24.10
2018-04-08T08:56:56.833Z,24.70
2018-04-08T08:59:24.095Z,24.53
2018-04-08T09:01:51.385Z,25.93
2018-04-08T09:04:17.943Z,26.10
2018-04-08T09:06:44.545Z,24.40
2018-04-08T09:09:11.698Z,25.37
2018-04-08T09:11:38.354Z,25.97
2018-04-08T09:14:04.946Z,25.23
2018-04-08T09:16:32.774Z,23.90
2018-04-08T09:19:01.241Z,23.40
2018-04-08T09:21:34.230Z,22.93
2018-04-08T09:24:03.786Z,20.83
2018-04-08T09:26:31.166Z,21.97
2018-04-08T09:28:57.766Z,23.13
2018-04-08T09:31:24.319Z,22.80
2018-04-08T09:33:50.902Z,23.07
2018-04-08T09:36:17.521Z,23.10
2018-04-08T09:38:44.073Z,23.77
2018-04-08T09:41:10.562Z,23.63
2018-04-08T09:43:37.112Z,23.10
2018-04-08T09:46:03.641Z,21.73
2018-04-08T09:48:30.231Z,22.30
2018-04-08T09:50:56.844Z,22.73
2018-04-08T09:53:23.414Z,21.53
2018-04-08T09:55:50.002Z,22.23
2018-04-08T09:58:17.554Z,20.60
2018-04-08T10:03:51.200Z,22.63
2018-04-08T10:06:18.575Z,23.30
2018-04-08T10:08:45.628Z,24.37
2018-04-08T10:11:12.194Z,23.70
2018-04-08T10:13:38.732Z,23.13
2018-04-08T10:16:06.418Z,23.47
2018-04-08T10:18:33.057Z,24.93
2018-04-08T10:20:59.659Z,23.10
2018-04-08T10:23:26.274Z,24.00
2018-04-08T10:25:52.828Z,22.13
2018-04-08T10:28:19.352Z,23.47
2018-04-08T10:30:45.954Z,22.90
2018-04-08T10:33:12.488Z,25.17
2018-04-08T10:35:39.083Z,23.10
2018-04-08T10:38:05.602Z,24.43
2018-04-08T10:40:32.228Z,24.00
2018-04-08T10:42:58.806Z,24.50
2018-04-08T10:45:25.363Z,23.87
2018-04-08T10:47:51.942Z,24.00
2018-04-08T10:50:18.511Z,22.97
2018-04-08T10:52:45.054Z,22.40
2018-04-08T10:55:12.308Z,21.97
2018-04-08T10:57:38.823Z,21.40
2018-04-08T11:00:05.366Z,22.17
2018-04-08T11:02:31.967Z,21.23
2018-04-08T11:04:59.509Z,19.90
2018-04-08T11:07:26.048Z,20.10
2018-04-08T11:09:52.553Z,19.23
2018-04-08T11:12:19.115Z,21.40
2018-04-08T11:14:45.653Z,19.37
2018-04-08T11:17:12.254Z,20.93
2018-04-08T11:19:39.567Z,21.43
2018-04-08T11:22:06.127Z,21.03
2018-04-08T11:24:32.685Z,21.90
2018-04-08T11:27:03.527Z,21.30
2018-04-08T11:29:30.070Z,21.43
2018-04-08T11:31:56.599Z,20.37
2018-04-08T11:34:23.110Z,20.27
2018-04-08T11:36:49.633Z,19.40
2018-04-08T11:39:16.210Z,20.13
2018-04-08T11:41:42.783Z,20.97
2018-04-08T11:44:09.334Z,19.57
2018-04-08T11:46:35.947Z,21.43
2018-04-08T11:49:02.480Z,19.97
2018-04-08T11:51:33.037Z,22.17
2018-04-08T11:54:00.307Z,21.10
2018-04-08T11:56:26.827Z,19.47
2018-04-08T11:58:53.445Z,18.40
2018-04-08T12:01:25.951Z,19.63
2018-04-08T12:03:52.511Z,18.60
2018-04-08T12:06:19.086Z,17.93
2018-04-08T12:08:45.678Z,20.33
2018-04-08T12:11:12.931Z,18.23
2018-04-08T12:13:40.758Z,18.80
2018-04-08T12:16:07.343Z,16.97
2018-04-08T12:18:33.863Z,16.70
2018-04-08T12:21:00.522Z,17.37
2018-04-08T12:23:27.097Z,18.03
2018-04-08T12:25:54.352Z,17.97
2018-04-08T12:28:20.883Z,17.63
2018-04-08T12:30:49.622Z,16.97
2018-04-08T12:33:16.926Z,15.33
2018-04-08T12:35:43.433Z,16.60
2018-04-08T12:38:10.011Z,15.67
2018-04-08T12:40:37.385Z,15.63
2018-04-08T12:43:04.007Z,15.37
2018-04-08T12:45:30.546Z,16.53
2018-04-08T12:47:57.190Z,16.20
2018-04-08T12:50:23.758Z,16.35
2018-04-08T12:52:50.998Z,16.57
2018-04-08T12:55:17.635Z,15.97
2018-04-08T12:57:44.962Z,14.43
2018-04-08T13:00:12.628Z,14.50
2018-04-08T13:02:39.209Z,13.90
2018-04-08T13:05:05.728Z,14.52
2018-04-08T13:07:33.029Z,13.70
2018-04-08T13:09:59.616Z,14.23
2018-04-08T13:12:26.938Z,13.48
2018-04-08T13:14:53.477Z,14.50
2018-04-08T13:17:20.034Z,14.40
2018-04-08T13:19:46.608Z,13.32
2018-04-08T13:22:13.131Z,12.80
2018-04-08T13:24:39.803Z,12.75
2018-04-08T13:27:06.398Z,12.65
2018-04-08T13:29:32.970Z,11.77
2018-04-08T13:31:59.551Z,12.13
2018-04-08T13:34:26.091Z,11.50
2018-04-08T13:36:52.699Z,11.30
2018-04-08T13:39:19.487Z,11.25
2018-04-08T13:41:46.786Z,11.68
2018-04-08T13:44:13.346Z,11.10
2018-04-08T13:46:39.996Z,11.88
2018-04-08T13:49:06.563Z,11.40
2018-04-08T13:51:33.873Z,9.90
2018-04-08T13:54:00.512Z,10.95
2018-04-08T13:56:27.149Z,11.20
2018-04-08T13:58:53.760Z,9.45
2018-04-08T14:01:20.324Z,9.48
2018-04-08T14:03:46.916Z,9.27
2018-04-08T14:06:13.496Z,8.52
2018-04-08T14:08:40.141Z,8.60
2018-04-08T14:11:06.734Z,8.40
2018-04-08T14:13:34.037Z,7.78
2018-04-08T14:16:00.942Z,8.20
2018-04-08T14:18:27.645Z,7.93
2018-04-08T14:20:54.514Z,8.00
2018-04-08T14:23:21.034Z,7.63
2018-04-08T14:25:47.556Z,7.57
2018-04-08T14:28:14.858Z,7.30
2018-04-08T14:30:42.214Z,6.57
2018-04-08T14:33:08.814Z,5.77
2018-04-08T14:35:35.402Z,5.03
2018-04-08T14:38:01.952Z,5.43
2018-04-08T14:40:28.498Z,5.10
2018-04-08T14:42:55.067Z,5.17
2018-04-08T14:45:21.656Z,5.43
2018-04-08T14:47:48.279Z,5.77
2018-04-08T14:50:14.807Z,5.87
2018-04-08T14:52:41.378Z,4.60
2018-04-08T14:55:08.003Z,4.90
2018-04-08T14:57:34.570Z,5.17
2018-04-08T15:00:01.131Z,4.97
2018-04-08T15:02:27.644Z,5.40
2018-04-08T15:04:54.219Z,5.17
2018-04-08T15:07:20.796Z,4.80
2018-04-08T15:09:47.323Z,5.23
2018-04-08T15:12:13.935Z,5.30
2018-04-08T15:14:40.531Z,4.67
2018-04-08T15:17:07.865Z,4.30
2018-04-08T15:19:34.370Z,4.80
2018-04-08T15:22:00.946Z,4.73
2018-04-08T15:24:27.561Z,4.80
2018-04-08T15:26:54.058Z,4.57
2018-04-08T15:29:20.552Z,4.37
2018-04-08T15:31:47.066Z,4.27
2018-04-08T15:34:13.593Z,4.50
2018-04-08T15:36:40.203Z,4.73
2018-04-08T15:39:06.784Z,4.50
2018-04-08T15:41:33.337Z,4.30
2018-04-08T15:43:59.910Z,4.40
2018-04-08T15:46:26.479Z,4.97
2018-04-08T15:48:52.997Z,4.60
2018-04-08T15:51:19.564Z,4.27
2018-04-08T15:53:46.058Z,4.10
2018-04-08T15:56:12.590Z,4.37
2018-04-08T15:58:39.082Z,4.40
2018-04-08T16:01:05.623Z,4.20
2018-04-08T16:03:32.167Z,4.50
2018-04-08T16:06:00.535Z,4.13
2018-04-08T16:08:27.860Z,4.10
2018-04-08T16:10:54.427Z,3.93
2018-04-08T16:13:21.020Z,3.97
2018-04-08T16:15:47.523Z,4.53
2018-04-08T16:18:14.857Z,4.37
2018-04-08T16:20:41.389Z,3.97
2018-04-08T16:23:07.950Z,4.10
2018-04-08T16:25:34.607Z,4.17
2018-04-08T16:28:01.130Z,4.00
2018-04-08T16:30:27.730Z,4.00
2018-04-08T16:32:54.263Z,4.93
2018-04-08T16:35:20.829Z,4.93
2018-04-08T16:37:47.372Z,5.10
2018-04-08T16:40:13.924Z,4.33
2018-04-08T16:42:40.434Z,4.87
2018-04-08T16:45:07.711Z,4.10
2018-04-08T16:47:34.243Z,3.60
2018-04-08T16:50:00.776Z,4.17
2018-04-08T16:52:27.305Z,3.67
2018-04-08T16:54:53.815Z,4.07
2018-04-08T16:57:20.319Z,3.90
2018-04-08T16:59:46.895Z,3.87
2018-04-08T17:02:13.467Z,3.40
2018-04-08T17:04:40.001Z,3.90
2018-04-08T17:07:06.570Z,4.10
2018-04-08T17:09:33.094Z,4.00
2018-04-08T17:11:59.685Z,3.90
2018-04-08T17:14:26.999Z,3.63
2018-04-08T17:16:53.519Z,3.20
2018-04-08T17:19:20.872Z,2.97
2018-04-08T17:21:47.443Z,2.90
2018-04-08T17:24:13.992Z,3.13
2018-04-08T17:26:41.317Z,3.30
2018-04-08T17:29:07.896Z,2.77
2018-04-08T17:31:35.137Z,3.63
2018-04-08T17:34:01.785Z,3.53
2018-04-08T17:36:28.303Z,3.80
2018-04-08T17:38:54.835Z,4.00
2018-04-08T17:41:21.424Z,4.27
2018-04-08T17:43:48.013Z,4.40
2018-04-08T17:46:14.563Z,4.10
2018-04-08T17:48:41.828Z,4.00
2018-04-08T17:51:09.081Z,3.50
2018-04-08T17:53:35.594Z,3.90
2018-04-08T17:56:02.405Z,3.53
2018-04-08T17:58:28.935Z,3.40
2018-04-08T18:00:55.557Z,3.70
2018-04-08T18:03:22.158Z,4.00
2018-04-08T18:05:48.689Z,3.97
2018-04-08T18:08:15.947Z,3.70
2018-04-08T18:10:43.227Z,2.63
2018-04-08T18:13:09.750Z,3.17
2018-04-08T18:15:36.363Z,2.77
2018-04-08T18:18:02.891Z,3.33
2018-04-08T18:20:29.468Z,2.87
2018-04-08T18:22:55.985Z,3.13
2018-04-08T18:25:23.279Z,2.43
2018-04-08T18:27:49.840Z,2.67
2018-04-08T18:30:16.376Z,2.30
2018-04-08T18:32:42.902Z,1.93
2018-04-08T18:35:09.596Z,2.20
2018-04-08T18:37:36.863Z,2.50
2018-04-08T18:40:03.489Z,2.47
2018-04-08T18:42:31.086Z,2.53
2018-04-08T18:44:57.883Z,2.67
2018-04-08T18:47:24.544Z,2.57
2018-04-08T18:49:51.067Z,3.03
2018-04-08T18:52:17.686Z,2.57
2018-04-08T18:54:45.098Z,2.73
2018-04-08T18:57:11.631Z,2.70
2018-04-08T18:59:38.151Z,2.77
2018-04-08T19:02:04.747Z,2.70
2018-04-08T19:04:32.201Z,2.33
2018-04-08T19:06:58.867Z,2.40
2018-04-08T19:09:25.451Z,2.57
2018-04-08T19:11:52.090Z,2.27
2018-04-08T19:14:19.346Z,2.37
2018-04-08T19:16:46.011Z,2.43
2018-04-08T19:19:12.547Z,2.60
2018-04-08T19:21:39.315Z,2.73
2018-04-08T19:24:05.926Z,2.60
2018-04-08T19:26:33.272Z,2.80
2018-04-08T19:28:59.852Z,2.50
2018-04-08T19:31:26.528Z,2.97
2018-04-08T19:33:53.346Z,2.80
2018-04-08T19:36:20.023Z,2.90
2018-04-08T19:38:46.607Z,2.73
2018-04-08T19:41:13.185Z,2.57
2018-04-08T19:43:39.761Z,3.03
2018-04-08T19:46:07.146Z,3.10
2018-04-08T19:48:33.724Z,4.07
2018-04-08T19:51:00.290Z,4.33
2018-04-08T19:53:27.601Z,6.20
2018-04-08T19:55:54.197Z,5.73
2018-04-08T19:58:20.877Z,5.80
2018-04-08T20:00:47.408Z,5.87
2018-04-08T20:03:14.142Z,6.13
2018-04-08T20:05:40.673Z,5.37
2018-04-08T20:08:07.273Z,6.80
2018-04-08T20:10:33.954Z,7.33
2018-04-08T20:13:00.558Z,9.20
2018-04-08T20:15:27.075Z,9.43
2018-04-08T20:17:54.599Z,8.87
2018-04-08T20:20:21.150Z,7.97
2018-04-08T20:22:47.720Z,9.23
2018-04-08T20:25:14.217Z,7.93
2018-04-08T20:27:40.813Z,8.40
2018-04-08T20:30:07.443Z,5.97
2018-04-08T20:32:33.976Z,7.47
2018-04-08T20:35:01.309Z,7.63
2018-04-08T20:37:27.861Z,7.47
2018-04-08T20:39:55.174Z,7.80
2018-04-08T20:42:21.708Z,8.00
2018-04-08T20:44:48.307Z,7.73
2018-04-08T20:47:15.042Z,8.50
2018-04-08T20:49:41.554Z,7.73
2018-04-08T20:52:08.856Z,9.10
2018-04-08T20:54:35.506Z,10.53
2018-04-08T20:57:02.069Z,10.20
2018-04-08T20:59:28.608Z,8.57
2018-04-08T21:01:55.164Z,8.33
2018-04-08T21:04:22.442Z,8.53
2018-04-08T21:06:48.995Z,8.70
2018-04-08T21:09:15.746Z,8.27
2018-04-08T21:11:42.279Z,9.83
2018-04-08T21:14:09.990Z,9.37
2018-04-08T21:16:37.290Z,9.00
2018-04-08T21:19:03.920Z,8.50
2018-04-08T21:21:30.519Z,9.00
2018-04-08T21:23:57.042Z,9.03
2018-04-08T21:26:23.649Z,7.60
2018-04-08T21:28:50.191Z,6.27
2018-04-08T21:31:16.760Z,7.70
2018-04-08T21:33:44.083Z,8.93
2018-04-08T21:36:10.648Z,8.67
2018-04-08T21:38:37.929Z,7.07
2018-04-08T21:41:04.508Z,7.57
2018-04-08T21:43:31.098Z,6.90
2018-04-08T21:45:57.683Z,6.83
2018-04-08T21:48:24.236Z,7.57
2018-04-08T21:50:51.373Z,6.20
2018-04-08T21:53:17.933Z,6.80
2018-04-08T21:55:44.552Z,6.00
2018-04-08T21:58:11.140Z,7.23
2018-04-08T22:00:41.877Z,6.80
2018-04-08T22:03:08.460Z,6.80
2018-04-08T22:05:34.992Z,5.83
2018-04-08T22:08:01.554Z,6.60
2018-04-08T22:10:28.839Z,6.63
2018-04-08T22:12:55.346Z,6.90
2018-04-08T22:15:21.919Z,7.10
2018-04-08T22:17:48.472Z,6.97
2018-04-08T22:20:15.039Z,7.30
2018-04-08T22:22:45.860Z,7.90
2018-04-08T22:25:12.428Z,7.87
2018-04-08T22:27:41.333Z,7.53
2018-04-08T22:30:08.658Z,7.87
2018-04-08T22:32:35.158Z,7.47
2018-04-08T22:35:01.682Z,6.97
2018-04-08T22:37:28.720Z,7.10
2018-04-08T22:39:55.224Z,7.67
2018-04-08T22:42:22.623Z,6.93
2018-04-08T22:44:49.252Z,6.53
2018-04-08T22:47:16.316Z,6.80
2018-04-08T22:49:42.857Z,6.53
2018-04-08T22:52:09.388Z,6.40
2018-04-08T22:54:35.899Z,7.07
2018-04-08T22:57:03.406Z,6.83
2018-04-08T22:59:30.704Z,6.60
2018-04-08T23:01:57.252Z,6.83
2018-04-08T23:04:23.799Z,6.70
2018-04-08T23:06:50.374Z,7.00
2018-04-08T23:09:16.932Z,6.53
2018-04-08T23:11:44.298Z,7.10
2018-04-08T23:14:10.828Z,6.53
2018-04-08T23:16:37.378Z,7.30
2018-04-08T23:19:03.969Z,7.07
2018-04-08T23:21:30.620Z,7.20
2018-04-08T23:23:57.160Z,7.20
2018-04-08T23:26:23.688Z,6.53
2018-04-08T23:28:50.228Z,6.13
2018-04-08T23:31:16.791Z,7.00
2018-04-08T23:33:47.687Z,6.23
2018-04-08T23:36:14.298Z,6.63
2018-04-08T23:38:41.427Z,7.07
2018-04-08T23:41:08.010Z,6.47
2018-04-08T23:43:34.524Z,7.43
2018-04-08T23:46:01.041Z,6.37
2018-04-08T23:48:27.620Z,6.70
2018-04-08T23:50:54.125Z,7.57
2018-04-08T23:53:20.625Z,7.00
2018-04-08T23:55:48.886Z,7.00
2018-04-08T23:58:16.374Z,6.97
